createdAt,value
2016-11-30T00:00:25.363Z,67.41
2016-11-30T00:01:40.243Z,67.76
2016-11-30T00:02:54.170Z,67.95
2016-11-30T00:04:08.617Z,68.52
2016-11-30T00:05:23.200Z,68.71
2016-11-30T00:06:37.286Z,68.61
2016-11-30T00:07:51.919Z,68.99
2016-11-30T00:09:05.632Z,69.27
2016-11-30T00:10:20.057Z,69.74
2016-11-30T00:11:34.682Z,69.84
2016-11-30T00:12:49.537Z,69.56
2016-11-30T00:14:03.635Z,70
2016-11-30T00:15:17.884Z,70
2016-11-30T00:16:31.880Z,69.74
2016-11-30T00:17:46.203Z,70.28
2016-11-30T00:19:00.163Z,70.65
2016-11-30T00:20:14.376Z,70.69
2016-11-30T00:21:28.743Z,70.69
2016-11-30T00:22:42.720Z,70.12
2016-11-30T00:23:56.940Z,70.12
2016-11-30T00:25:10.878Z,69.74
2016-11-30T00:26:25.176Z,69.93
2016-11-30T00:27:39.566Z,69.37
2016-11-30T00:28:53.378Z,69.56
2016-11-30T00:30:07.592Z,69.74
2016-11-30T00:31:22.350Z,69.81
2016-11-30T00:32:36.576Z,70.28
2016-11-30T00:33:50.577Z,70.65
2016-11-30T00:35:04.638Z,70.84
2016-11-30T00:36:19.240Z,70.65
2016-11-30T00:37:33.203Z,71.03
2016-11-30T00:38:47.774Z,70.94
2016-11-30T00:40:01.931Z,71.98
2016-11-30T00:41:15.807Z,72.45
2016-11-30T00:42:29.833Z,72.58
2016-11-30T00:43:44.283Z,72.11
2016-11-30T00:44:58.419Z,71.73
2016-11-30T00:46:12.559Z,71.64
2016-11-30T00:47:28.786Z,72.58
2016-11-30T00:48:43.264Z,73.33
2016-11-30T00:49:57.323Z,73.71
2016-11-30T00:51:12.490Z,72.67
2016-11-30T00:52:26.413Z,72.49
2016-11-30T00:53:40.452Z,71.45
2016-11-30T00:54:54.598Z,70.59
2016-11-30T00:56:09.139Z,70.84
2016-11-30T00:57:23.960Z,71.5
2016-11-30T00:58:38.065Z,71.69
2016-11-30T00:59:51.912Z,72.39
2016-11-30T01:01:06.067Z,71.54
2016-11-30T01:02:20.411Z,71.92
2016-11-30T01:03:34.853Z,71.45
2016-11-30T01:04:48.726Z,71.45
2016-11-30T01:06:02.995Z,70.78
2016-11-30T01:07:17.075Z,70.69
2016-11-30T01:08:31.488Z,70.03
2016-11-30T01:09:46.444Z,69.37
2016-11-30T01:11:00.837Z,69.46
2016-11-30T01:12:14.643Z,69.84
2016-11-30T01:13:28.601Z,69.84
2016-11-30T01:14:57.371Z,69.84
2016-11-30T01:16:12.211Z,70.47
2016-11-30T01:17:25.909Z,71.83
2016-11-30T01:18:40.364Z,71.92
2016-11-30T01:19:54.523Z,72.02
2016-11-30T01:21:08.473Z,72.2
2016-11-30T01:22:23.060Z,71.73
2016-11-30T01:23:37.516Z,72.02
2016-11-30T01:24:51.287Z,72.11
2016-11-30T01:26:05.349Z,72.49
2016-11-30T01:27:19.452Z,72.39
2016-11-30T01:29:03.060Z,72.3
2016-11-30T01:30:17.666Z,72.58
2016-11-30T01:33:29.803Z,72.49
2016-11-30T01:34:43.863Z,72.2
2016-11-30T01:35:58.857Z,72.3
2016-11-30T01:37:12.766Z,71.83
2016-11-30T01:38:26.929Z,71.92
2016-11-30T01:39:40.783Z,71.83
2016-11-30T01:40:55.076Z,71.83
2016-11-30T01:42:09.279Z,72.11
2016-11-30T01:43:23.538Z,72.39
2016-11-30T01:44:37.438Z,72.11
2016-11-30T01:45:51.536Z,72.39
2016-11-30T01:47:05.853Z,72.49
2016-11-30T01:48:20.763Z,72.39
2016-11-30T01:49:34.966Z,72.2
2016-11-30T01:50:49.191Z,72.11
2016-11-30T01:52:02.850Z,72.96
2016-11-30T01:53:17.019Z,72.96
2016-11-30T01:54:31.633Z,73.05
2016-11-30T01:55:45.811Z,73.11
2016-11-30T01:57:00.128Z,73.39
2016-11-30T01:58:14.030Z,73.49
2016-11-30T01:59:28.138Z,73.49
2016-11-30T02:00:42.307Z,73.86
2016-11-30T02:02:11.562Z,73.86
2016-11-30T02:03:25.852Z,74.62
2016-11-30T02:04:40.372Z,75
2016-11-30T02:05:56.969Z,74.9
2016-11-30T02:07:11.093Z,75.19
2016-11-30T02:08:25.293Z,75.76
2016-11-30T02:09:39.493Z,75.76
2016-11-30T02:10:53.858Z,75.66
2016-11-30T02:12:07.898Z,76.14
2016-11-30T02:13:21.834Z,76.23
2016-11-30T02:14:35.807Z,75.85
2016-11-30T02:15:50.129Z,76.04
2016-11-30T02:17:04.411Z,75.57
2016-11-30T02:18:18.447Z,75.66
2016-11-30T02:19:32.455Z,75.47
2016-11-30T02:20:46.495Z,75.38
2016-11-30T02:22:00.983Z,75
2016-11-30T02:23:15.626Z,75.19
2016-11-30T02:24:29.642Z,75
2016-11-30T02:25:43.676Z,75.28
2016-11-30T02:26:58.151Z,75.66
2016-11-30T02:28:12.471Z,75.57
2016-11-30T02:29:41.285Z,76.14
2016-11-30T02:30:55.238Z,76.42
2016-11-30T02:32:09.267Z,76.19
2016-11-30T02:33:23.243Z,76.79
2016-11-30T02:34:37.888Z,76.57
2016-11-30T02:35:52.052Z,76.66
2016-11-30T02:37:06.066Z,76.32
2016-11-30T02:38:20.108Z,76.79
2016-11-30T02:39:34.249Z,76.32
2016-11-30T02:40:48.790Z,76.51
2016-11-30T02:42:03.722Z,76.42
2016-11-30T02:43:17.718Z,76.04
2016-11-30T02:44:31.801Z,75.76
2016-11-30T02:45:45.916Z,75.57
2016-11-30T02:47:00.436Z,76.04
2016-11-30T02:48:14.827Z,75.85
2016-11-30T02:49:28.863Z,75.57
2016-11-30T02:50:42.990Z,75.76
2016-11-30T02:51:57.330Z,75.85
2016-11-30T02:53:11.759Z,76.23
2016-11-30T02:54:26.083Z,76.89
2016-11-30T02:55:40.032Z,76.98
2016-11-30T02:56:54.073Z,77.08
2016-11-30T02:58:08.153Z,76.89
2016-11-30T02:59:22.567Z,76.32
2016-11-30T03:00:36.671Z,76.04
2016-11-30T03:06:18.258Z,75.09
2016-11-30T03:07:32.113Z,75.19
2016-11-30T03:08:46.186Z,75.76
2016-11-30T03:10:00.335Z,75.09
2016-11-30T03:11:14.504Z,75.57
2016-11-30T03:12:28.946Z,75.95
2016-11-30T03:13:43.345Z,76.04
2016-11-30T03:14:57.858Z,76.04
2016-11-30T03:16:12.003Z,76.04
2016-11-30T03:17:26.199Z,76.32
2016-11-30T03:18:40.942Z,75.95
2016-11-30T03:19:55.170Z,75.66
2016-11-30T03:21:09.233Z,75.38
2016-11-30T03:22:38.200Z,75.57
2016-11-30T03:23:52.408Z,75.19
2016-11-30T03:25:09.389Z,75.09
2016-11-30T03:26:23.346Z,74.43
2016-11-30T03:27:37.658Z,73.96
2016-11-30T03:29:21.309Z,73.86
2016-11-30T03:30:36.138Z,74.05
2016-11-30T03:31:50.525Z,73.74
2016-11-30T03:33:19.045Z,74.3
2016-11-30T03:34:32.835Z,73.93
2016-11-30T03:35:47.640Z,74.02
2016-11-30T03:37:01.661Z,74.58
2016-11-30T03:38:15.914Z,74.49
2016-11-30T03:39:29.876Z,74.49
2016-11-30T03:40:43.947Z,74.11
2016-11-30T03:41:58.247Z,74.11
2016-11-30T03:43:12.498Z,74.49
2016-11-30T03:44:26.550Z,74.49
2016-11-30T03:45:40.855Z,74.68
2016-11-30T03:46:55.359Z,74.49
2016-11-30T03:48:09.605Z,74.11
2016-11-30T03:49:23.616Z,74.4
2016-11-30T03:50:38.073Z,74.68
2016-11-30T03:51:52.190Z,74.49
2016-11-30T03:53:06.259Z,74.02
2016-11-30T03:54:20.790Z,74.21
2016-11-30T03:55:35.064Z,74.21
2016-11-30T03:56:49.421Z,74.87
2016-11-30T03:58:03.626Z,74.96
2016-11-30T03:59:17.703Z,75.05
2016-11-30T04:00:31.727Z,74.87
2016-11-30T04:01:45.786Z,74.87
2016-11-30T04:03:00.066Z,74.96
2016-11-30T04:04:13.853Z,74.77
2016-11-30T04:05:27.801Z,75.62
2016-11-30T04:06:41.901Z,76.57
2016-11-30T04:07:56.185Z,76.76
2016-11-30T04:09:10.441Z,76.47
2016-11-30T04:10:27.174Z,77.04
2016-11-30T04:11:47.211Z,77.32
2016-11-30T04:13:10.478Z,77.13
2016-11-30T04:14:35.815Z,77.04
2016-11-30T04:15:56.966Z,77.13
2016-11-30T04:17:18.633Z,77.23
2016-11-30T04:18:40.310Z,76.57
2016-11-30T04:20:03.220Z,75.71
2016-11-30T04:21:24.190Z,76
2016-11-30T04:22:45.858Z,75.53
2016-11-30T04:24:01.519Z,75.24
2016-11-30T04:25:15.767Z,75.24
2016-11-30T04:26:29.986Z,74.96
2016-11-30T04:29:12.857Z,75.43
2016-11-30T04:30:27.012Z,74.77
2016-11-30T04:31:40.957Z,74.4
2016-11-30T04:32:54.702Z,74.11
2016-11-30T04:34:08.898Z,74.11
2016-11-30T04:35:22.857Z,73.64
2016-11-30T04:36:36.841Z,73.83
2016-11-30T04:37:51.226Z,73.93
2016-11-30T04:39:05.508Z,74.21
2016-11-30T04:40:19.365Z,75.15
2016-11-30T04:41:33.162Z,75.43
2016-11-30T04:42:47.687Z,76
2016-11-30T04:44:04.567Z,76.66
2016-11-30T04:45:18.517Z,76.85
2016-11-30T04:46:32.926Z,76.85
2016-11-30T04:47:47.094Z,76.66
2016-11-30T04:49:01.092Z,76.57
2016-11-30T04:50:15.822Z,75.71
2016-11-30T04:51:29.972Z,75.81
2016-11-30T04:52:44.192Z,75.62
2016-11-30T04:53:58.506Z,75.43
2016-11-30T04:55:12.641Z,74.87
2016-11-30T04:56:26.988Z,74.96
2016-11-30T04:57:41.217Z,74.87
2016-11-30T04:58:55.636Z,75.34
2016-11-30T05:00:09.784Z,75.34
2016-11-30T05:01:24.173Z,74.92
2016-11-30T05:02:38.222Z,75.4
2016-11-30T05:03:53.318Z,75.49
2016-11-30T05:05:07.712Z,75.87
2016-11-30T05:06:21.450Z,75.68
2016-11-30T05:07:35.457Z,76.15
2016-11-30T05:08:49.438Z,76.66
2016-11-30T05:10:03.494Z,77.19
2016-11-30T05:11:17.837Z,77.75
2016-11-30T05:12:31.784Z,77.94
2016-11-30T05:13:46.280Z,77.75
2016-11-30T05:15:00.253Z,78.08
2016-11-30T05:16:14.486Z,77.98
2016-11-30T05:17:44.202Z,77.98
2016-11-30T05:19:01.467Z,77.42
2016-11-30T05:20:15.703Z,76.9
2016-11-30T05:21:31.598Z,76.38
2016-11-30T05:22:46.422Z,76.43
2016-11-30T05:24:00.540Z,76.43
2016-11-30T05:25:15.152Z,76.43
2016-11-30T05:26:30.041Z,76.25
2016-11-30T05:27:44.850Z,77
2016-11-30T05:28:58.792Z,77.56
2016-11-30T05:30:12.949Z,77.19
2016-11-30T05:31:42.460Z,77.13
2016-11-30T05:32:57.869Z,77.09
2016-11-30T05:34:12.339Z,76.72
2016-11-30T05:35:27.227Z,79.27
2016-11-30T05:36:41.838Z,78.55
2016-11-30T05:37:55.825Z,78.45
2016-11-30T05:39:10.105Z,77.85
2016-11-30T05:40:24.514Z,77.13
2016-11-30T05:41:38.617Z,77.42
2016-11-30T05:42:52.997Z,76.72
2016-11-30T05:44:07.105Z,76.81
2016-11-30T05:45:21.212Z,76.25
2016-11-30T05:46:36.398Z,76.25
2016-11-30T05:47:50.700Z,75.96
2016-11-30T05:49:05.188Z,76.09
2016-11-30T05:50:19.393Z,76.09
2016-11-30T05:51:34.317Z,76.57
2016-11-30T05:52:48.757Z,76.38
2016-11-30T05:54:02.878Z,76.47
2016-11-30T05:55:17.687Z,76
2016-11-30T05:56:31.600Z,76.09
2016-11-30T05:57:45.755Z,75.9
2016-11-30T05:59:01.017Z,76
2016-11-30T06:00:15.148Z,75.81
2016-11-30T06:01:32.207Z,75.9
2016-11-30T06:02:46.068Z,76
2016-11-30T06:04:00.883Z,75.9
2016-11-30T06:05:15.266Z,76
2016-11-30T06:06:29.572Z,75.71
2016-11-30T06:07:44.310Z,75.62
2016-11-30T06:08:58.112Z,75.71
2016-11-30T06:10:13.423Z,75.9
2016-11-30T06:11:29.047Z,76.38
2016-11-30T06:12:44.407Z,76.62
2016-11-30T06:13:58.963Z,76.66
2016-11-30T06:15:13.649Z,76.95
2016-11-30T06:16:27.873Z,77.32
2016-11-30T06:17:42.555Z,77.32
2016-11-30T06:18:57.040Z,77.13
2016-11-30T06:20:11.429Z,77.51
2016-11-30T06:21:25.792Z,77.32
2016-11-30T06:22:54.635Z,77.23
2016-11-30T06:24:09.183Z,77.04
2016-11-30T06:25:23.781Z,76.47
2016-11-30T06:26:37.969Z,76.85
2016-11-30T06:27:52.113Z,76.09
2016-11-30T06:29:06.569Z,75.81
2016-11-30T06:30:20.569Z,75.05
2016-11-30T06:31:35.763Z,75.05
2016-11-30T06:32:49.899Z,75.43
2016-11-30T06:34:05.003Z,75.3
2016-11-30T06:35:18.967Z,74.92
2016-11-30T06:39:31.217Z,76.06
2016-11-30T06:40:45.818Z,75.78
2016-11-30T06:41:59.796Z,76.38
2016-11-30T06:43:13.843Z,76.62
2016-11-30T06:44:28.070Z,76.81
2016-11-30T06:45:42.088Z,77.42
2016-11-30T06:46:56.046Z,77.7
2016-11-30T06:48:13.796Z,77.13
2016-11-30T06:49:34.644Z,77.32
2016-11-30T06:51:03.588Z,77.19
2016-11-30T06:52:17.382Z,76.9
2016-11-30T06:53:46.256Z,76.34
2016-11-30T06:55:00.343Z,76.25
2016-11-30T06:56:14.517Z,76.43
2016-11-30T06:57:28.569Z,76.81
2016-11-30T06:58:42.480Z,76.62
2016-11-30T06:59:56.642Z,76.62
2016-11-30T07:01:10.850Z,76.25
2016-11-30T07:02:25.211Z,76.06
2016-11-30T07:03:38.965Z,75.87
2016-11-30T07:04:53.027Z,75.59
2016-11-30T07:06:07.495Z,75.78
2016-11-30T07:07:21.353Z,76.15
2016-11-30T07:08:36.357Z,76.25
2016-11-30T07:09:50.285Z,76.43
2016-11-30T07:11:04.135Z,76.43
2016-11-30T07:12:18.288Z,76.43
2016-11-30T07:13:32.033Z,76.72
2016-11-30T07:14:46.351Z,76.81
2016-11-30T07:16:00.183Z,76.81
2016-11-30T07:17:14.004Z,76.72
2016-11-30T07:18:28.053Z,76.25
2016-11-30T07:19:41.924Z,76.25
2016-11-30T07:20:58.192Z,76.72
2016-11-30T07:22:12.484Z,76.53
2016-11-30T07:23:26.895Z,76.34
2016-11-30T07:24:41.053Z,76.25
2016-11-30T07:26:09.661Z,76.9
2016-11-30T07:27:23.972Z,76.81
2016-11-30T07:28:38.174Z,77.09
2016-11-30T07:29:52.517Z,77.09
2016-11-30T07:31:06.519Z,77.09
2016-11-30T07:32:20.824Z,77.09
2016-11-30T07:33:34.851Z,76.9
2016-11-30T07:34:48.897Z,77.19
2016-11-30T07:36:03.156Z,77.28
2016-11-30T07:37:17.132Z,77.09
2016-11-30T07:38:31.234Z,77.28
2016-11-30T07:39:45.153Z,77
2016-11-30T07:40:59.118Z,77.09
2016-11-30T07:42:13.684Z,77
2016-11-30T07:43:27.873Z,76.85
2016-11-30T07:44:41.798Z,76.85
2016-11-30T07:45:55.587Z,76.85
2016-11-30T07:47:10.053Z,76.47
2016-11-30T07:48:24.117Z,76.09
2016-11-30T07:49:38.213Z,76.47
2016-11-30T07:50:52.646Z,76
2016-11-30T07:52:06.894Z,76
2016-11-30T07:53:21.277Z,75.71
2016-11-30T07:54:36.184Z,75.9
2016-11-30T07:55:50.576Z,76.09
2016-11-30T07:57:05.157Z,75.9
2016-11-30T07:58:19.041Z,76.57
2016-11-30T07:59:33.108Z,76.38
2016-11-30T08:00:47.352Z,76.38
2016-11-30T08:02:01.411Z,76.38
2016-11-30T08:03:15.887Z,76.38
2016-11-30T08:04:29.851Z,76.47
2016-11-30T08:05:43.901Z,76.38
2016-11-30T08:06:58.143Z,76.47
2016-11-30T08:08:12.016Z,76.47
2016-11-30T08:09:25.712Z,76
2016-11-30T08:10:39.559Z,75.9
2016-11-30T08:11:53.278Z,76
2016-11-30T08:13:07.577Z,76
2016-11-30T08:14:21.260Z,76.57
2016-11-30T08:15:34.987Z,76.66
2016-11-30T08:16:48.721Z,76.66
2016-11-30T08:18:02.723Z,76.28
2016-11-30T08:19:17.029Z,76.47
2016-11-30T08:20:31.507Z,76.85
2016-11-30T08:21:45.205Z,76.85
2016-11-30T08:22:59.170Z,76.85
2016-11-30T08:24:13.259Z,76.19
2016-11-30T08:25:27.382Z,76.38
2016-11-30T08:26:42.321Z,76
2016-11-30T08:27:56.457Z,76.19
2016-11-30T08:29:10.457Z,76
2016-11-30T08:30:24.378Z,76.19
2016-11-30T08:31:38.794Z,78.74
2016-11-30T08:32:52.976Z,77.89
2016-11-30T08:34:06.891Z,77.23
2016-11-30T08:35:20.928Z,77.23
2016-11-30T08:36:34.957Z,76.76
2016-11-30T08:37:51.536Z,76.42
2016-11-30T08:39:05.328Z,75.95
2016-11-30T08:40:19.466Z,75.85
2016-11-30T08:41:33.853Z,75.47
2016-11-30T08:42:47.719Z,75.19
2016-11-30T08:44:01.733Z,75.47
2016-11-30T08:45:15.645Z,75.38
2016-11-30T08:46:29.433Z,75.47
2016-11-30T08:47:43.506Z,76.14
2016-11-30T08:48:57.720Z,75.47
2016-11-30T08:50:11.549Z,75.28
2016-11-30T08:51:25.374Z,75.47
2016-11-30T08:52:39.183Z,74.81
2016-11-30T08:53:53.021Z,74.53
2016-11-30T08:55:07.277Z,74.05
2016-11-30T08:56:21.824Z,74.05
2016-11-30T08:57:37.133Z,74.05
2016-11-30T08:58:51.157Z,73.96
2016-11-30T09:00:05.075Z,74.24
2016-11-30T09:01:18.981Z,74.15
2016-11-30T09:02:33.342Z,74.05
2016-11-30T09:03:49.209Z,74.09
2016-11-30T09:05:03.330Z,74
2016-11-30T09:06:17.319Z,74.09
2016-11-30T09:07:31.297Z,74.09
2016-11-30T09:08:45.663Z,73.9
2016-11-30T09:09:59.956Z,73.62
2016-11-30T09:11:14.514Z,74.28
2016-11-30T09:12:43.835Z,74.19
2016-11-30T09:13:57.693Z,74.09
2016-11-30T09:15:12.069Z,73.71
2016-11-30T09:16:25.927Z,74.09
2016-11-30T09:17:40.747Z,73.43
2016-11-30T09:18:54.480Z,74.09
2016-11-30T09:20:08.990Z,73.9
2016-11-30T09:21:23.994Z,73.81
2016-11-30T09:22:38.488Z,73.9
2016-11-30T09:24:10.767Z,73.71
2016-11-30T09:25:25.985Z,73.9
2016-11-30T09:26:41.531Z,73.9
2016-11-30T09:27:55.883Z,74.19
2016-11-30T09:29:10.183Z,74
2016-11-30T09:30:24.001Z,74.19
2016-11-30T09:31:38.483Z,73.52
2016-11-30T09:32:53.134Z,73.62
2016-11-30T09:34:07.140Z,73.24
2016-11-30T09:35:21.040Z,73.05
2016-11-30T09:36:35.102Z,73.52
2016-11-30T09:37:49.164Z,73.05
2016-11-30T09:39:03.410Z,73.62
2016-11-30T09:40:22.369Z,73.52
2016-11-30T09:41:47.590Z,73.71
2016-11-30T09:43:24.531Z,72.86
2016-11-30T09:44:48.117Z,72.86
2016-11-30T09:46:14.257Z,72.43
2016-11-30T09:47:38.568Z,72.43
2016-11-30T09:49:16.963Z,72.11
2016-11-30T09:50:39.509Z,72.62
2016-11-30T09:52:02.850Z,72.43
2016-11-30T09:53:24.100Z,72.52
2016-11-30T09:54:38.548Z,71.86
2016-11-30T09:55:53.364Z,71.48
2016-11-30T09:57:10.664Z,71.58
2016-11-30T09:58:25.190Z,71.01
2016-11-30T09:59:38.913Z,71.67
2016-11-30T10:00:53.771Z,71.2
2016-11-30T10:02:08.266Z,71.58
2016-11-30T10:03:22.019Z,71.3
2016-11-30T10:04:35.838Z,70.25
2016-11-30T10:05:49.787Z,70.06
2016-11-30T10:07:03.870Z,69.68
2016-11-30T10:08:18.145Z,69.31
2016-11-30T10:09:32.372Z,69.12
2016-11-30T10:10:46.111Z,69.21
2016-11-30T10:11:59.986Z,69.25
2016-11-30T10:13:14.214Z,69.02
2016-11-30T10:14:28.832Z,69.12
2016-11-30T10:15:42.883Z,69.02
2016-11-30T10:17:11.404Z,68.55
2016-11-30T10:18:25.948Z,68.55
2016-11-30T10:19:40.214Z,68.74
2016-11-30T10:20:54.134Z,68.65
2016-11-30T10:22:08.026Z,67.89
2016-11-30T10:23:21.844Z,68.02
2016-11-30T10:24:35.851Z,67.93
2016-11-30T10:25:50.237Z,68.12
2016-11-30T10:27:04.103Z,68.55
2016-11-30T10:28:18.069Z,68.65
2016-11-30T10:29:31.758Z,68.46
2016-11-30T10:30:45.731Z,68.59
2016-11-30T10:31:59.942Z,68.74
2016-11-30T10:33:14.134Z,68.12
2016-11-30T10:34:27.892Z,68.49
2016-11-30T10:35:41.957Z,68.65
2016-11-30T10:36:55.610Z,68.21
2016-11-30T10:38:10.099Z,68.74
2016-11-30T10:39:24.041Z,68.59
2016-11-30T10:40:38.264Z,68.3
2016-11-30T10:41:52.210Z,68.21
2016-11-30T10:43:05.927Z,68.4
2016-11-30T10:44:20.562Z,67.93
2016-11-30T10:45:34.536Z,68.21
2016-11-30T10:46:48.704Z,67.93
2016-11-30T10:48:02.812Z,67.36
2016-11-30T10:49:16.483Z,67.64
2016-11-30T10:50:31.192Z,67.26
2016-11-30T10:51:44.918Z,67.17
2016-11-30T10:52:58.719Z,67.55
2016-11-30T10:54:12.815Z,67.45
2016-11-30T10:55:27.058Z,67.64
2016-11-30T10:56:41.406Z,67.07
2016-11-30T10:57:55.102Z,66.69
2016-11-30T10:59:08.933Z,66.5
2016-11-30T11:00:23.173Z,66.6
2016-11-30T11:01:37.265Z,66.5
2016-11-30T11:02:51.530Z,66.69
2016-11-30T11:04:05.498Z,66.6
2016-11-30T11:05:19.582Z,66.13
2016-11-30T11:06:33.880Z,65.75
2016-11-30T11:07:47.748Z,65.97
2016-11-30T11:09:01.897Z,65.31
2016-11-30T11:10:15.985Z,64.83
2016-11-30T11:11:29.844Z,64.64
2016-11-30T11:12:43.783Z,64.93
2016-11-30T11:14:00.949Z,65.5
2016-11-30T11:15:16.181Z,64.83
2016-11-30T11:16:30.150Z,64.36
2016-11-30T11:17:44.123Z,64.74
2016-11-30T11:18:57.971Z,64.07
2016-11-30T11:20:13.319Z,63.98
2016-11-30T11:21:42.474Z,64.17
2016-11-30T11:22:57.150Z,64.17
2016-11-30T11:24:11.426Z,64.74
2016-11-30T11:25:25.625Z,65.21
2016-11-30T11:26:39.404Z,65.21
2016-11-30T11:27:53.119Z,64.74
2016-11-30T11:29:07.075Z,64.17
2016-11-30T11:30:21.464Z,64.17
2016-11-30T11:31:35.841Z,64.07
2016-11-30T11:32:49.770Z,63.98
2016-11-30T11:34:04.341Z,63.7
2016-11-30T11:35:32.855Z,63.89
2016-11-30T11:36:47.185Z,63.7
2016-11-30T11:38:01.145Z,63.98
2016-11-30T11:39:15.619Z,64.93
2016-11-30T11:40:30.215Z,64.55
2016-11-30T11:41:44.298Z,64.55
2016-11-30T11:42:58.583Z,64.17
2016-11-30T11:44:13.899Z,63.98
2016-11-30T11:45:28.750Z,63.79
2016-11-30T11:46:43.262Z,63.7
2016-11-30T11:47:57.507Z,63.7
2016-11-30T11:49:12.259Z,63.7
2016-11-30T11:50:26.915Z,63.07
2016-11-30T11:51:42.483Z,63.32
2016-11-30T11:52:57.291Z,63.7
2016-11-30T11:54:13.026Z,63.42
2016-11-30T11:57:01.045Z,62.5
2016-11-30T11:58:17.114Z,62.69
2016-11-30T11:59:32.858Z,63.16
2016-11-30T12:00:49.357Z,62.88
2016-11-30T12:02:04.656Z,62.88
2016-11-30T12:03:20.208Z,63.07
2016-11-30T12:04:35.285Z,63.16
2016-11-30T12:05:51.441Z,62.5
2016-11-30T12:07:06.139Z,62.21
2016-11-30T12:08:20.659Z,62.31
2016-11-30T12:09:35.417Z,62.21
2016-11-30T12:10:53.788Z,62.59
2016-11-30T12:12:23.835Z,62.02
2016-11-30T12:13:39.606Z,62.5
2016-11-30T12:14:55.057Z,61.65
2016-11-30T12:16:11.742Z,61.65
2016-11-30T12:17:26.402Z,61.65
2016-11-30T12:18:41.132Z,61.46
2016-11-30T12:19:55.978Z,61.46
2016-11-30T12:21:11.497Z,61.27
2016-11-30T12:22:27.075Z,61.18
2016-11-30T12:23:41.989Z,60.99
2016-11-30T12:24:56.298Z,61.18
2016-11-30T12:26:11.250Z,60.89
2016-11-30T12:27:25.077Z,61.18
2016-11-30T12:28:41.106Z,60.89
2016-11-30T12:29:54.840Z,60.8
2016-11-30T12:31:09.260Z,60.51
2016-11-30T12:32:26.252Z,60.32
2016-11-30T12:33:40.663Z,60.51
2016-11-30T12:34:55.374Z,60.51
2016-11-30T12:36:12.345Z,60.99
2016-11-30T12:37:26.683Z,61.36
2016-11-30T12:38:41.935Z,61.27
2016-11-30T12:39:56.014Z,60.89
2016-11-30T12:41:10.251Z,61.18
2016-11-30T12:42:24.477Z,60.89
2016-11-30T12:43:38.700Z,60.8
2016-11-30T12:44:53.304Z,60.7
2016-11-30T12:46:07.468Z,60.51
2016-11-30T12:47:21.987Z,60.7
2016-11-30T12:48:36.064Z,60.51
2016-11-30T12:49:50.482Z,60.61
2016-11-30T12:51:19.021Z,61.18
2016-11-30T12:52:33.438Z,60.99
2016-11-30T12:53:48.381Z,60.8
2016-11-30T12:55:03.168Z,60.7
2016-11-30T12:56:17.464Z,61.18
2016-11-30T12:57:46.910Z,61.18
2016-11-30T12:59:01.147Z,60.99
2016-11-30T13:00:15.439Z,60.99
2016-11-30T13:01:30.043Z,61.08
2016-11-30T13:02:44.073Z,61.18
2016-11-30T13:03:58.395Z,61.18
2016-11-30T13:05:12.598Z,61.27
2016-11-30T13:06:26.733Z,60.89
2016-11-30T13:07:41.074Z,60.51
2016-11-30T13:08:55.361Z,60.8
2016-11-30T13:10:09.173Z,60.41
2016-11-30T13:11:23.229Z,60.51
2016-11-30T13:12:37.067Z,60.03
2016-11-30T13:13:51.276Z,60.16
2016-11-30T13:15:05.367Z,60.51
2016-11-30T13:16:19.514Z,60.13
2016-11-30T13:17:34.239Z,59.97
2016-11-30T13:18:48.092Z,60.16
2016-11-30T13:20:02.058Z,60.25
2016-11-30T13:21:15.991Z,59.97
2016-11-30T13:22:29.700Z,59.78
2016-11-30T13:23:43.966Z,59.69
2016-11-30T13:24:57.864Z,59.5
2016-11-30T13:26:12.104Z,59.41
2016-11-30T13:27:25.959Z,58.84
2016-11-30T13:28:40.173Z,58.74
2016-11-30T13:29:54.997Z,58.84
2016-11-30T13:31:08.961Z,59.03
2016-11-30T13:32:23.428Z,59.03
2016-11-30T13:33:37.098Z,58.26
2016-11-30T13:36:20.595Z,58.36
2016-11-30T13:37:34.500Z,57.79
2016-11-30T13:38:48.385Z,58.36
2016-11-30T13:40:02.749Z,58.29
2016-11-30T13:41:16.451Z,58.39
2016-11-30T13:42:30.701Z,58.01
2016-11-30T13:43:44.530Z,57.73
2016-11-30T13:44:58.302Z,57.35
2016-11-30T13:46:12.727Z,57.16
2016-11-30T13:47:26.931Z,57.35
2016-11-30T13:48:41.152Z,57.16
2016-11-30T13:49:57.029Z,57.25
2016-11-30T13:51:11.139Z,57.06
2016-11-30T13:52:25.012Z,56.59
2016-11-30T13:53:39.146Z,56.49
2016-11-30T13:54:53.397Z,56.59
2016-11-30T13:56:07.207Z,56.4
2016-11-30T13:57:21.342Z,56.59
2016-11-30T13:58:35.258Z,56.97
2016-11-30T13:59:49.470Z,56.87
2016-11-30T14:01:03.609Z,57.25
2016-11-30T14:02:17.888Z,57.16
2016-11-30T14:03:47.082Z,57.25
2016-11-30T14:05:01.268Z,57.23
2016-11-30T14:06:14.989Z,57.13
2016-11-30T14:07:28.975Z,57.35
2016-11-30T14:08:42.788Z,57.35
2016-11-30T14:09:56.882Z,57.44
2016-11-30T14:11:11.126Z,57.82
2016-11-30T14:12:25.275Z,57.23
2016-11-30T14:13:39.211Z,57.98
2016-11-30T14:14:53.035Z,57.7
2016-11-30T14:16:07.968Z,57.54
2016-11-30T14:17:22.383Z,57.54
2016-11-30T14:18:36.494Z,57.54
2016-11-30T14:19:51.091Z,57.25
2016-11-30T14:21:04.805Z,57.54
2016-11-30T14:22:18.975Z,57.54
2016-11-30T14:23:32.997Z,57.44
2016-11-30T14:24:47.359Z,57.44
2016-11-30T14:26:02.075Z,57.73
2016-11-30T14:27:16.307Z,57.06
2016-11-30T14:28:31.605Z,57.54
2016-11-30T14:29:45.489Z,57.44
2016-11-30T14:30:59.743Z,57.06
2016-11-30T14:32:13.957Z,57.54
2016-11-30T14:33:28.221Z,57.44
2016-11-30T14:34:42.558Z,57.44
2016-11-30T14:35:56.876Z,57.73
2016-11-30T14:37:11.534Z,57.16
2016-11-30T14:38:25.928Z,57.06
2016-11-30T14:39:39.792Z,56.97
2016-11-30T14:40:53.999Z,57.25
2016-11-30T14:42:08.071Z,57.06
2016-11-30T14:43:22.113Z,57.16
2016-11-30T14:44:36.698Z,57.25
2016-11-30T14:45:50.581Z,57.06
2016-11-30T14:47:04.734Z,56.97
2016-11-30T14:48:18.478Z,57.25
2016-11-30T14:49:32.606Z,57.73
2016-11-30T14:50:47.364Z,57.73
2016-11-30T14:52:01.440Z,58.01
2016-11-30T14:53:15.354Z,58.01
2016-11-30T14:54:29.222Z,58.01
2016-11-30T14:55:43.236Z,58.11
2016-11-30T14:56:57.257Z,58.39
2016-11-30T15:01:08.779Z,58.67
2016-11-30T15:02:23.218Z,58.77
2016-11-30T15:03:36.974Z,59.25
2016-11-30T15:04:51.471Z,59.44
2016-11-30T15:06:05.485Z,59.53
2016-11-30T15:07:19.427Z,59.78
2016-11-30T15:08:35.836Z,59.44
2016-11-30T15:09:49.867Z,60
2016-11-30T15:11:03.559Z,59.69
2016-11-30T15:12:17.695Z,59.72
2016-11-30T15:13:31.966Z,60
2016-11-30T15:14:46.065Z,60.06
2016-11-30T15:16:00.158Z,60.28
2016-11-30T15:17:14.377Z,59.97
2016-11-30T15:18:57.860Z,60.16
2016-11-30T15:20:12.203Z,60.44
2016-11-30T15:21:26.007Z,60.64
2016-11-30T15:22:40.580Z,61.11
2016-11-30T15:23:54.452Z,60.92
2016-11-30T15:25:08.427Z,61.21
2016-11-30T15:26:22.843Z,61.49
2016-11-30T15:27:38.883Z,61.96
2016-11-30T15:28:53.200Z,61.49
2016-11-30T15:30:07.113Z,61.68
2016-11-30T15:31:21.093Z,62.05
2016-11-30T15:32:35.566Z,62.15
2016-11-30T15:33:49.979Z,62.34
2016-11-30T15:35:04.342Z,62.15
2016-11-30T15:36:18.700Z,62.24
2016-11-30T15:37:33.156Z,62.72
2016-11-30T15:38:47.958Z,62.53
2016-11-30T15:40:02.072Z,62.72
2016-11-30T15:41:16.660Z,63.48
2016-11-30T15:42:31.616Z,63.76
2016-11-30T15:43:46.500Z,63.67
2016-11-30T15:45:00.713Z,63.76
2016-11-30T15:46:14.633Z,63.57
2016-11-30T15:47:29.737Z,63.82
2016-11-30T15:48:43.540Z,64.39
2016-11-30T15:49:57.317Z,64.11
2016-11-30T15:51:11.643Z,64.2
2016-11-30T15:52:25.530Z,64.3
2016-11-30T15:53:39.707Z,63.92
2016-11-30T15:54:53.441Z,64.01
2016-11-30T15:56:07.515Z,64.14
2016-11-30T15:57:21.884Z,64.49
2016-11-30T15:58:35.743Z,64.04
2016-11-30T15:59:49.859Z,63.85
2016-11-30T16:01:03.752Z,63.95
2016-11-30T16:02:17.505Z,63.76
2016-11-30T16:03:31.628Z,63.67
2016-11-30T16:04:45.614Z,63.76
2016-11-30T16:05:59.946Z,63.76
2016-11-30T16:07:13.951Z,63.67
2016-11-30T16:08:28.031Z,63.76
2016-11-30T16:09:42.545Z,63.95
2016-11-30T16:10:56.565Z,63.76
2016-11-30T16:12:10.675Z,63.67
2016-11-30T16:13:25.342Z,63.76
2016-11-30T16:14:39.661Z,63.95
2016-11-30T16:15:54.518Z,64.33
2016-11-30T16:17:08.501Z,64.2
2016-11-30T16:18:22.617Z,64.52
2016-11-30T16:19:37.017Z,64.87
2016-11-30T16:20:51.347Z,64.9
2016-11-30T16:22:20.596Z,64.71
2016-11-30T16:23:34.960Z,65.34
2016-11-30T16:24:49.341Z,64.96
2016-11-30T16:26:05.677Z,64.96
2016-11-30T16:27:23.267Z,65.63
2016-11-30T16:28:43.978Z,65.25
2016-11-30T16:29:58.307Z,65.53